createdAt,value
2017-09-16T00:00:27.544Z,963.12
2017-09-16T00:01:27.537Z,963.08
2017-09-16T00:02:27.532Z,963.01
2017-09-16T00:03:27.527Z,962.96
2017-09-16T00:04:27.522Z,962.91
2017-09-16T00:05:27.515Z,962.86
2017-09-16T00:06:27.509Z,962.87
2017-09-16T00:07:27.504Z,962.88
2017-09-16T00:08:27.498Z,962.92
2017-09-16T00:09:27.493Z,962.96
2017-09-16T00:10:27.487Z,962.93
2017-09-16T00:11:27.481Z,962.97
2017-09-16T00:12:27.476Z,962.97
2017-09-16T00:13:27.471Z,963.02
2017-09-16T00:14:27.464Z,963
2017-09-16T00:15:27.460Z,963.03
2017-09-16T00:16:27.555Z,963.07
2017-09-16T00:17:27.449Z,963.09
2017-09-16T00:18:27.441Z,963.06
2017-09-16T00:19:27.437Z,963.07
2017-09-16T00:20:27.432Z,963.06
2017-09-16T00:21:27.425Z,963.01
2017-09-16T00:22:27.421Z,963.07
2017-09-16T00:23:27.416Z,963.03
2017-09-16T00:24:27.409Z,963.01
2017-09-16T00:25:27.403Z,962.99
2017-09-16T00:26:27.398Z,962.96
2017-09-16T00:27:27.392Z,962.94
2017-09-16T00:28:27.387Z,962.89
2017-09-16T00:29:27.380Z,962.84
2017-09-16T00:30:27.375Z,962.86
2017-09-16T00:31:27.369Z,962.83
2017-09-16T00:32:27.364Z,962.88
2017-09-16T00:33:27.359Z,962.92
2017-09-16T00:34:27.354Z,962.92
2017-09-16T00:35:27.347Z,962.94
2017-09-16T00:36:27.341Z,962.91
2017-09-16T00:37:27.338Z,962.93
2017-09-16T00:38:27.431Z,962.88
2017-09-16T00:39:27.325Z,962.86
2017-09-16T00:40:27.320Z,962.87
2017-09-16T00:41:27.316Z,962.87
2017-09-16T00:42:27.308Z,962.81
2017-09-16T00:43:27.306Z,962.84
2017-09-16T00:44:27.298Z,962.84
2017-09-16T00:45:27.291Z,962.82
2017-09-16T00:46:27.287Z,962.89
2017-09-16T00:47:27.280Z,962.8
2017-09-16T00:48:27.276Z,962.86
2017-09-16T00:49:27.268Z,962.83
2017-09-16T00:50:27.263Z,962.82
2017-09-16T00:51:27.261Z,962.85
2017-09-16T00:52:27.252Z,962.8
2017-09-16T00:53:27.246Z,962.76
2017-09-16T00:54:27.240Z,962.7
2017-09-16T00:55:27.235Z,962.65
2017-09-16T00:56:27.229Z,962.65
2017-09-16T00:57:27.224Z,962.6
2017-09-16T00:58:27.219Z,962.59
2017-09-16T00:59:27.212Z,962.61
2017-09-16T01:00:27.206Z,962.59
2017-09-16T01:01:27.303Z,962.61
2017-09-16T01:02:27.195Z,962.65
2017-09-16T01:03:27.189Z,962.65
2017-09-16T01:04:27.183Z,962.65
2017-09-16T01:05:27.178Z,962.66
2017-09-16T01:06:27.174Z,962.66
2017-09-16T01:07:27.168Z,962.64
2017-09-16T01:08:27.163Z,962.63
2017-09-16T01:09:27.155Z,962.58
2017-09-16T01:10:27.150Z,962.57
2017-09-16T01:11:27.144Z,962.58
2017-09-16T01:12:27.139Z,962.53
2017-09-16T01:13:27.133Z,962.51
2017-09-16T01:14:27.127Z,962.53
2017-09-16T01:15:27.123Z,962.51
2017-09-16T01:16:27.215Z,962.54
2017-09-16T01:17:27.211Z,962.5
2017-09-16T01:18:27.104Z,962.49
2017-09-16T01:19:27.099Z,962.48
2017-09-16T01:20:27.093Z,962.48
2017-09-16T01:21:27.089Z,962.43
2017-09-16T01:22:27.083Z,962.41
2017-09-16T01:23:27.078Z,962.42
2017-09-16T01:24:27.071Z,962.39
2017-09-16T01:25:27.065Z,962.41
2017-09-16T01:26:27.061Z,962.42
2017-09-16T01:27:27.053Z,962.43
2017-09-16T01:28:27.049Z,962.4
2017-09-16T01:29:27.042Z,962.4
2017-09-16T01:30:27.038Z,962.43
2017-09-16T01:31:27.032Z,962.45
2017-09-16T01:32:27.026Z,962.48
2017-09-16T01:33:27.021Z,962.51
2017-09-16T01:34:27.015Z,962.57
2017-09-16T01:35:27.010Z,962.57
2017-09-16T01:36:27.004Z,962.51
2017-09-16T01:37:26.997Z,962.49
2017-09-16T01:38:26.992Z,962.45
2017-09-16T01:39:26.987Z,962.44
2017-09-16T01:40:26.981Z,962.42
2017-09-16T01:41:26.976Z,962.41
2017-09-16T01:42:26.972Z,962.37
2017-09-16T01:43:26.964Z,962.34
2017-09-16T01:44:26.958Z,962.28
2017-09-16T01:45:26.952Z,962.35
2017-09-16T01:46:27.046Z,962.35
2017-09-16T01:47:26.941Z,962.29
2017-09-16T01:48:26.937Z,962.32
2017-09-16T01:49:26.930Z,962.31
2017-09-16T01:50:26.925Z,962.34
2017-09-16T01:51:26.918Z,962.34
2017-09-16T01:52:26.912Z,962.39
2017-09-16T01:53:26.931Z,962.36
2017-09-16T01:54:26.901Z,962.37
2017-09-16T01:55:26.900Z,962.37
2017-09-16T01:56:26.889Z,962.35
2017-09-16T01:57:26.883Z,962.33
2017-09-16T01:58:26.880Z,962.27
2017-09-16T01:59:26.972Z,962.27
2017-09-16T02:00:26.866Z,962.32
2017-09-16T02:01:26.861Z,962.3
2017-09-16T02:02:26.855Z,962.26
2017-09-16T02:03:26.851Z,962.24
2017-09-16T02:04:26.944Z,962.26
2017-09-16T02:05:26.839Z,962.22
2017-09-16T02:06:26.833Z,962.21
2017-09-16T02:07:26.826Z,962.18
2017-09-16T02:08:26.820Z,962.18
2017-09-16T02:09:26.820Z,962.18
2017-09-16T02:10:26.809Z,962.23
2017-09-16T02:11:26.904Z,962.2
2017-09-16T02:12:26.798Z,962.24
2017-09-16T02:13:26.792Z,962.25
2017-09-16T02:14:26.786Z,962.26
2017-09-16T02:15:26.780Z,962.28
2017-09-16T02:16:26.775Z,962.26
2017-09-16T02:17:26.770Z,962.24
2017-09-16T02:18:26.762Z,962.25
2017-09-16T02:19:26.758Z,962.25
2017-09-16T02:20:26.853Z,962.17
2017-09-16T02:21:26.747Z,962.17
2017-09-16T02:22:26.740Z,962.17
2017-09-16T02:23:26.735Z,962.12
2017-09-16T02:24:26.729Z,962.09
2017-09-16T02:25:26.724Z,962.04
2017-09-16T02:26:26.717Z,962.06
2017-09-16T02:27:26.713Z,962.04
2017-09-16T02:28:26.705Z,962.02
2017-09-16T02:29:26.699Z,962.04
2017-09-16T02:30:26.694Z,962.08
2017-09-16T02:31:26.688Z,962.09
2017-09-16T02:32:26.683Z,962.08
2017-09-16T02:33:26.679Z,962.09
2017-09-16T02:34:26.673Z,962.05
2017-09-16T02:35:26.667Z,962.11
2017-09-16T02:36:26.660Z,962.07
2017-09-16T02:37:26.653Z,962.07
2017-09-16T02:38:26.650Z,962.03
2017-09-16T02:39:26.642Z,962.05
2017-09-16T02:40:26.637Z,962.07
2017-09-16T02:41:26.631Z,962.09
2017-09-16T02:42:26.626Z,962.15
2017-09-16T02:43:26.621Z,962.07
2017-09-16T02:44:26.714Z,962.18
2017-09-16T02:45:26.606Z,962.15
2017-09-16T02:46:26.601Z,962.14
2017-09-16T02:47:26.596Z,962.2
2017-09-16T02:48:26.590Z,962.23
2017-09-16T02:49:26.584Z,962.24
2017-09-16T02:50:26.580Z,962.28
2017-09-16T02:51:26.573Z,962.32
2017-09-16T02:52:26.667Z,962.31
2017-09-16T02:53:26.562Z,962.31
2017-09-16T02:54:26.556Z,962.32
2017-09-16T02:55:26.550Z,962.24
2017-09-16T02:56:26.544Z,962.25
2017-09-16T02:57:26.538Z,962.21
2017-09-16T02:58:26.534Z,962.23
2017-09-16T02:59:26.526Z,962.18
2017-09-16T03:00:26.521Z,962.15
2017-09-16T03:01:26.514Z,962.19
2017-09-16T03:02:26.510Z,962.14
2017-09-16T03:03:26.502Z,962.13
2017-09-16T03:04:26.497Z,962.12
2017-09-16T03:05:26.592Z,962.07
2017-09-16T03:06:26.485Z,962.04
2017-09-16T03:07:26.481Z,962.03
2017-09-16T03:08:26.574Z,961.99
2017-09-16T03:09:26.468Z,962
2017-09-16T03:10:26.464Z,961.99
2017-09-16T03:11:26.457Z,961.99
2017-09-16T03:12:26.553Z,961.94
2017-09-16T03:13:26.446Z,961.95
2017-09-16T03:14:26.440Z,961.99
2017-09-16T03:15:26.436Z,962
2017-09-16T03:16:26.430Z,962.03
2017-09-16T03:17:26.424Z,962.02
2017-09-16T03:18:26.416Z,962.03
2017-09-16T03:19:26.412Z,962.04
2017-09-16T03:20:26.405Z,962.01
2017-09-16T03:21:26.501Z,962
2017-09-16T03:22:26.394Z,961.99
2017-09-16T03:23:26.389Z,962.01
2017-09-16T03:24:26.382Z,961.99
2017-09-16T03:25:26.377Z,962
2017-09-16T03:26:26.372Z,962.05
2017-09-16T03:27:26.366Z,962.08
2017-09-16T03:28:26.360Z,962.13
2017-09-16T03:29:26.353Z,962.12
2017-09-16T03:30:26.352Z,962.11
2017-09-16T03:31:26.441Z,962.09
2017-09-16T03:32:26.335Z,962.07
2017-09-16T03:33:26.332Z,962.04
2017-09-16T03:34:26.325Z,962.08
2017-09-16T03:35:26.418Z,962.05
2017-09-16T03:36:26.313Z,962.04
2017-09-16T03:37:26.308Z,962.03
2017-09-16T03:38:26.301Z,962.03
2017-09-16T03:39:26.296Z,962.05
2017-09-16T03:40:26.289Z,962.03
2017-09-16T03:41:26.284Z,962.02
2017-09-16T03:42:26.278Z,962.05
2017-09-16T03:43:26.273Z,962.06
2017-09-16T03:44:26.266Z,962.08
2017-09-16T03:45:26.260Z,962.14
2017-09-16T03:46:26.254Z,962.09
2017-09-16T03:47:26.249Z,962.17
2017-09-16T03:48:26.244Z,962.15
2017-09-16T03:49:26.238Z,962.08
2017-09-16T03:50:26.231Z,962.07
2017-09-16T03:51:26.225Z,962.09
2017-09-16T03:52:26.221Z,962.07
2017-09-16T03:53:26.214Z,962.1
2017-09-16T03:54:26.208Z,962.1
2017-09-16T03:55:26.203Z,962.07
2017-09-16T03:56:26.196Z,962.05
2017-09-16T03:57:26.190Z,962.01
2017-09-16T03:58:26.185Z,962.01
2017-09-16T03:59:26.179Z,962.02
2017-09-16T04:00:26.175Z,961.98
2017-09-16T04:01:26.268Z,961.99
2017-09-16T04:02:26.161Z,962
2017-09-16T04:03:26.156Z,961.99
2017-09-16T04:04:26.148Z,961.99
2017-09-16T04:05:26.144Z,962
2017-09-16T04:06:26.140Z,961.93
2017-09-16T04:07:26.133Z,961.93
2017-09-16T04:08:26.126Z,961.94
2017-09-16T04:09:26.122Z,961.91
2017-09-16T04:10:26.115Z,961.97
2017-09-16T04:11:26.111Z,961.93
2017-09-16T04:12:26.104Z,961.98
2017-09-16T04:13:26.098Z,962
2017-09-16T04:14:26.093Z,961.99
2017-09-16T04:15:26.087Z,962.01
2017-09-16T04:16:26.080Z,962.01
2017-09-16T04:17:26.074Z,962.01
2017-09-16T04:18:26.070Z,962.02
2017-09-16T04:19:26.063Z,961.96
2017-09-16T04:20:26.057Z,961.93
2017-09-16T04:21:26.051Z,961.99
2017-09-16T04:22:26.047Z,962
2017-09-16T04:23:26.040Z,961.99
2017-09-16T04:24:26.034Z,961.97
2017-09-16T04:25:26.028Z,961.95
2017-09-16T04:26:26.021Z,961.94
2017-09-16T04:27:26.017Z,961.96
2017-09-16T04:28:26.012Z,961.88
2017-09-16T04:29:26.005Z,961.88
2017-09-16T04:30:25.999Z,961.91
2017-09-16T04:31:25.992Z,961.89
2017-09-16T04:32:26.086Z,961.9
2017-09-16T04:33:25.981Z,961.85
2017-09-16T04:34:25.976Z,961.87
2017-09-16T04:35:26.069Z,961.84
2017-09-16T04:36:25.963Z,961.81
2017-09-16T04:37:25.957Z,961.79
2017-09-16T04:38:25.951Z,961.85
2017-09-16T04:39:25.947Z,961.84
2017-09-16T04:40:25.940Z,961.82
2017-09-16T04:41:25.936Z,961.86
2017-09-16T04:42:26.028Z,961.86
2017-09-16T04:43:25.922Z,961.88
2017-09-16T04:44:25.916Z,961.85
2017-09-16T04:45:26.011Z,961.84
2017-09-16T04:46:25.905Z,961.87
2017-09-16T04:47:25.900Z,961.85
2017-09-16T04:48:25.894Z,961.88
2017-09-16T04:49:25.887Z,961.88
2017-09-16T04:50:25.983Z,961.88
2017-09-16T04:51:25.876Z,961.87
2017-09-16T04:52:25.870Z,961.95
2017-09-16T04:53:25.865Z,961.93
2017-09-16T04:54:25.859Z,961.95
2017-09-16T04:55:25.852Z,961.97
2017-09-16T04:56:25.847Z,961.99
2017-09-16T04:57:25.841Z,962
2017-09-16T04:58:25.837Z,962.02
2017-09-16T04:59:25.830Z,961.99
2017-09-16T05:00:25.823Z,962.04
2017-09-16T05:01:25.819Z,962.04
2017-09-16T05:02:25.812Z,962.05
2017-09-16T05:03:25.805Z,962.05
2017-09-16T05:04:25.802Z,962.06
2017-09-16T05:05:25.795Z,962.04
2017-09-16T05:06:25.788Z,962
2017-09-16T05:07:25.784Z,962.01
2017-09-16T05:08:25.777Z,962.02
2017-09-16T05:09:25.771Z,962.03
2017-09-16T05:10:25.866Z,962.01
2017-09-16T05:11:25.759Z,962.01
2017-09-16T05:12:25.754Z,962.02
2017-09-16T05:13:25.748Z,961.99
2017-09-16T05:14:25.741Z,962.03
2017-09-16T05:15:25.737Z,961.98
2017-09-16T05:16:25.730Z,962.02
2017-09-16T05:17:25.724Z,961.99
2017-09-16T05:18:25.719Z,961.95
2017-09-16T05:19:25.712Z,961.93
2017-09-16T05:20:25.708Z,961.99
2017-09-16T05:21:25.701Z,961.96
2017-09-16T05:22:25.695Z,961.97
2017-09-16T05:23:25.689Z,961.96
2017-09-16T05:24:25.684Z,961.93
2017-09-16T05:25:25.676Z,961.99
2017-09-16T05:26:25.670Z,962
2017-09-16T05:27:25.665Z,961.99
2017-09-16T05:28:25.759Z,962.03
2017-09-16T05:29:25.754Z,962.05
2017-09-16T05:30:25.750Z,962.05
2017-09-16T05:31:25.642Z,962.06
2017-09-16T05:32:25.635Z,962.13
2017-09-16T05:33:25.631Z,962.07
2017-09-16T05:34:25.624Z,962.11
2017-09-16T05:35:25.618Z,962.14
2017-09-16T05:36:25.613Z,962.18
2017-09-16T05:37:25.606Z,962.1
2017-09-16T05:38:25.600Z,962.17
2017-09-16T05:39:25.594Z,962.15
2017-09-16T05:40:25.588Z,962.16
2017-09-16T05:41:25.683Z,962.16
2017-09-16T05:42:25.578Z,962.16
2017-09-16T05:43:25.571Z,962.19
2017-09-16T05:44:25.566Z,962.18
2017-09-16T05:45:25.559Z,962.18
2017-09-16T05:46:25.555Z,962.18
2017-09-16T05:47:25.548Z,962.19
2017-09-16T05:48:25.541Z,962.25
2017-09-16T05:49:25.536Z,962.21
2017-09-16T05:50:25.528Z,962.2
2017-09-16T05:51:25.524Z,962.2
2017-09-16T05:52:25.518Z,962.21
2017-09-16T05:53:25.512Z,962.23
2017-09-16T05:54:25.605Z,962.21
2017-09-16T05:55:25.501Z,962.2
2017-09-16T05:56:25.494Z,962.23
2017-09-16T05:57:25.489Z,962.27
2017-09-16T05:58:25.482Z,962.29
2017-09-16T05:59:25.477Z,962.25
2017-09-16T06:00:25.473Z,962.31
2017-09-16T06:01:25.466Z,962.28
2017-09-16T06:02:25.460Z,962.3
2017-09-16T06:03:25.454Z,962.3
2017-09-16T06:04:25.449Z,962.28
2017-09-16T06:05:25.443Z,962.25
2017-09-16T06:06:25.437Z,962.28
2017-09-16T06:07:25.431Z,962.31
2017-09-16T06:08:25.425Z,962.37
2017-09-16T06:09:25.418Z,962.37
2017-09-16T06:10:25.413Z,962.33
2017-09-16T06:11:25.408Z,962.33
2017-09-16T06:12:25.401Z,962.35
2017-09-16T06:13:25.394Z,962.32
2017-09-16T06:14:25.389Z,962.3
2017-09-16T06:15:25.384Z,962.31
2017-09-16T06:16:25.377Z,962.26
2017-09-16T06:17:25.371Z,962.34
2017-09-16T06:18:25.367Z,962.36
2017-09-16T06:19:25.360Z,962.31
2017-09-16T06:20:25.355Z,962.31
2017-09-16T06:21:25.348Z,962.36
2017-09-16T06:22:25.344Z,962.36
2017-09-16T06:23:25.338Z,962.34
2017-09-16T06:24:25.332Z,962.39
2017-09-16T06:25:25.426Z,962.42
2017-09-16T06:26:25.320Z,962.43
2017-09-16T06:27:25.314Z,962.43
2017-09-16T06:28:25.308Z,962.46
2017-09-16T06:29:25.302Z,962.49
2017-09-16T06:30:25.396Z,962.46
2017-09-16T06:31:25.290Z,962.47
2017-09-16T06:32:25.284Z,962.46
2017-09-16T06:33:25.283Z,962.47
2017-09-16T06:34:25.271Z,962.48
2017-09-16T06:35:25.366Z,962.52
2017-09-16T06:36:25.260Z,962.5
2017-09-16T06:37:25.256Z,962.48
2017-09-16T06:38:25.248Z,962.49
2017-09-16T06:39:25.242Z,962.52
2017-09-16T06:40:25.238Z,962.56
2017-09-16T06:41:25.230Z,962.54
2017-09-16T06:42:25.225Z,962.57
2017-09-16T06:43:25.220Z,962.53
2017-09-16T06:44:25.214Z,962.55
2017-09-16T06:45:25.309Z,962.57
2017-09-16T06:46:25.202Z,962.6
2017-09-16T06:47:25.297Z,962.58
2017-09-16T06:48:25.191Z,962.59
2017-09-16T06:49:25.183Z,962.57
2017-09-16T06:50:25.180Z,962.59
2017-09-16T06:51:25.173Z,962.61
2017-09-16T06:52:25.168Z,962.61
2017-09-16T06:53:25.162Z,962.59
2017-09-16T06:54:25.156Z,962.69
2017-09-16T06:55:25.150Z,962.71
2017-09-16T06:56:25.143Z,962.67
2017-09-16T06:57:25.138Z,962.69
2017-09-16T06:58:25.131Z,962.71
2017-09-16T06:59:25.127Z,962.68
2017-09-16T07:00:25.119Z,962.71
2017-09-16T07:01:25.115Z,962.72
2017-09-16T07:02:25.109Z,962.69
2017-09-16T07:03:25.101Z,962.7
2017-09-16T07:04:25.097Z,962.73
2017-09-16T07:05:25.091Z,962.7
2017-09-16T07:06:25.084Z,962.72
2017-09-16T07:07:25.078Z,962.71
2017-09-16T07:08:25.074Z,962.72
2017-09-16T07:09:25.067Z,962.72
2017-09-16T07:10:25.063Z,962.73
2017-09-16T07:11:25.056Z,962.72
2017-09-16T07:12:25.050Z,962.72
2017-09-16T07:13:25.043Z,962.77
2017-09-16T07:14:25.037Z,962.74
2017-09-16T07:15:25.033Z,962.75
2017-09-16T07:16:25.026Z,962.77
2017-09-16T07:17:25.121Z,962.78
2017-09-16T07:18:25.014Z,962.8
2017-09-16T07:19:25.009Z,962.79
2017-09-16T07:20:25.007Z,962.85
2017-09-16T07:21:24.997Z,962.83
2017-09-16T07:22:24.990Z,962.84
2017-09-16T07:23:24.985Z,962.85
2017-09-16T07:24:24.980Z,962.86
2017-09-16T07:25:24.973Z,962.91
2017-09-16T07:26:24.968Z,962.91
2017-09-16T07:27:24.962Z,962.97
2017-09-16T07:28:24.957Z,963.01
2017-09-16T07:29:24.950Z,963
2017-09-16T07:30:24.945Z,963.05
2017-09-16T07:31:24.941Z,963.05
2017-09-16T07:32:24.934Z,963.03
2017-09-16T07:33:24.926Z,963.06
2017-09-16T07:34:24.922Z,963.03
2017-09-16T07:35:24.916Z,963.05
2017-09-16T07:36:24.911Z,963.09
2017-09-16T07:37:24.904Z,963.09
2017-09-16T07:38:24.899Z,963.09
2017-09-16T07:39:24.893Z,963.08
2017-09-16T07:40:24.889Z,963.08
2017-09-16T07:41:24.881Z,963.08
2017-09-16T07:42:25.076Z,963.1
2017-09-16T07:43:24.870Z,963.09
2017-09-16T07:44:24.862Z,963.1
2017-09-16T07:45:25.057Z,963.1
2017-09-16T07:46:24.853Z,963.1
2017-09-16T07:47:24.845Z,963.07
2017-09-16T07:48:24.840Z,963.08
2017-09-16T07:49:24.834Z,963.03
2017-09-16T07:50:24.829Z,963.05
2017-09-16T07:51:24.822Z,963.11
2017-09-16T07:52:24.817Z,963.04
2017-09-16T07:53:24.810Z,963.05
2017-09-16T07:54:24.804Z,963.07
2017-09-16T07:55:24.800Z,963.04
2017-09-16T07:56:24.794Z,963.1
2017-09-16T07:57:24.989Z,963.11
2017-09-16T07:58:24.983Z,963.11
2017-09-16T07:59:24.777Z,963.13
2017-09-16T08:00:24.972Z,963.13
2017-09-16T08:01:24.765Z,963.11
2017-09-16T08:02:24.758Z,963.14
2017-09-16T08:03:24.753Z,963.15
2017-09-16T08:04:24.749Z,963.12
2017-09-16T08:05:24.741Z,963.1
2017-09-16T08:06:24.736Z,963.1
2017-09-16T08:07:24.730Z,963.11
2017-09-16T08:08:24.725Z,963.15
2017-09-16T08:09:24.735Z,963.12
2017-09-16T08:10:24.713Z,963.1
2017-09-16T08:11:24.706Z,963.09
2017-09-16T08:12:24.701Z,963.08
2017-09-16T08:13:24.694Z,963.11
2017-09-16T08:14:24.790Z,963.12
2017-09-16T08:15:24.684Z,963.14
2017-09-16T08:16:24.677Z,963.15
2017-09-16T08:17:24.671Z,963.13
2017-09-16T08:18:24.767Z,963.11
2017-09-16T08:19:24.661Z,963.1
2017-09-16T08:20:24.655Z,963.11
2017-09-16T08:21:24.648Z,963.16
2017-09-16T08:22:24.744Z,963.18
2017-09-16T08:23:24.637Z,963.2
2017-09-16T08:24:24.631Z,963.17
2017-09-16T08:25:24.625Z,963.25
2017-09-16T08:26:24.620Z,963.23
2017-09-16T08:27:24.613Z,963.25
2017-09-16T08:28:24.607Z,963.25
2017-09-16T08:29:24.603Z,963.25
2017-09-16T08:30:24.597Z,963.28
2017-09-16T08:31:24.591Z,963.27
2017-09-16T08:32:24.584Z,963.3
2017-09-16T08:33:24.580Z,963.25
2017-09-16T08:34:24.573Z,963.32
2017-09-16T08:35:24.567Z,963.26
2017-09-16T08:36:24.561Z,963.29
2017-09-16T08:37:24.555Z,963.26
2017-09-16T08:38:24.550Z,963.27
2017-09-16T08:39:24.544Z,963.24
2017-09-16T08:40:24.538Z,963.26
2017-09-16T08:41:24.532Z,963.25
2017-09-16T08:42:24.628Z,963.25
2017-09-16T08:43:24.521Z,963.22
2017-09-16T08:44:24.514Z,963.22
2017-09-16T08:45:24.510Z,963.21
2017-09-16T08:46:24.503Z,963.2
2017-09-16T08:47:24.497Z,963.21
2017-09-16T08:48:24.592Z,963.27
2017-09-16T08:49:24.485Z,963.2
2017-09-16T08:50:24.479Z,963.24
2017-09-16T08:51:24.474Z,963.24
2017-09-16T08:52:24.469Z,963.23
2017-09-16T08:53:24.462Z,963.25
2017-09-16T08:54:24.457Z,963.28
2017-09-16T08:55:24.453Z,963.24
2017-09-16T08:56:24.446Z,963.24
2017-09-16T08:57:24.440Z,963.27
2017-09-16T08:58:24.433Z,963.24
2017-09-16T08:59:24.528Z,963.3
2017-09-16T09:00:24.421Z,963.27
2017-09-16T09:01:24.416Z,963.28
2017-09-16T09:02:24.412Z,963.28
2017-09-16T09:03:24.406Z,963.27
2017-09-16T09:04:24.399Z,963.29
2017-09-16T09:05:24.393Z,963.29
2017-09-16T09:06:24.389Z,963.3
2017-09-16T09:07:24.482Z,963.3
2017-09-16T09:08:24.375Z,963.3
2017-09-16T09:09:24.370Z,963.3
2017-09-16T09:10:24.366Z,963.28
2017-09-16T09:11:24.359Z,963.26
2017-09-16T09:12:24.353Z,963.25
2017-09-16T09:13:24.348Z,963.27
2017-09-16T09:14:24.342Z,963.23
2017-09-16T09:15:24.441Z,963.23
2017-09-16T09:16:24.330Z,963.24
2017-09-16T09:17:24.325Z,963.24
2017-09-16T09:18:24.318Z,963.18
2017-09-16T09:19:24.313Z,963.16
2017-09-16T09:20:24.408Z,963.17
2017-09-16T09:21:24.301Z,963.2
2017-09-16T09:22:24.294Z,963.2
2017-09-16T09:23:24.289Z,963.17
2017-09-16T09:24:24.383Z,963.17
2017-09-16T09:25:24.278Z,963.14
2017-09-16T09:26:24.272Z,963.1
2017-09-16T09:27:24.267Z,963.14
2017-09-16T09:28:24.260Z,963.04
2017-09-16T09:29:24.255Z,963.07
2017-09-16T09:30:24.250Z,963.06
2017-09-16T09:31:24.245Z,963.04
2017-09-16T09:32:24.241Z,963.01
2017-09-16T09:33:24.232Z,963.03
2017-09-16T09:34:24.229Z,963.03
2017-09-16T09:35:24.222Z,963.01
2017-09-16T09:36:24.216Z,963.02
2017-09-16T09:37:24.210Z,963
2017-09-16T09:38:24.204Z,963.06
2017-09-16T09:39:24.200Z,963.02
2017-09-16T09:40:24.194Z,962.99
2017-09-16T09:41:24.188Z,963.02
2017-09-16T09:42:24.182Z,963.03
2017-09-16T09:43:24.177Z,963.03
2017-09-16T09:44:24.171Z,963
2017-09-16T09:45:24.166Z,963
2017-09-16T09:46:24.161Z,963
2017-09-16T09:47:24.255Z,962.96
2017-09-16T09:48:24.148Z,963.01
2017-09-16T09:49:24.142Z,962.97
2017-09-16T09:50:24.137Z,962.97
2017-09-16T09:51:24.130Z,962.98
2017-09-16T09:52:24.127Z,962.95
2017-09-16T09:53:24.120Z,962.91
2017-09-16T09:54:24.116Z,962.91
2017-09-16T09:55:24.109Z,962.92
2017-09-16T09:56:24.104Z,962.89
2017-09-16T09:57:24.098Z,962.88
2017-09-16T09:58:24.094Z,962.93
2017-09-16T09:59:24.186Z,962.91
2017-09-16T10:00:24.081Z,962.89
2017-09-16T10:01:24.077Z,962.88
2017-09-16T10:02:24.069Z,962.89
2017-09-16T10:03:24.064Z,962.84
2017-09-16T10:04:24.059Z,962.84
2017-09-16T10:05:24.054Z,962.84
2017-09-16T10:06:24.048Z,962.86
2017-09-16T10:07:24.043Z,962.89
2017-09-16T10:08:24.037Z,962.9
2017-09-16T10:09:24.032Z,962.9
2017-09-16T10:10:24.026Z,962.92
2017-09-16T10:11:24.121Z,962.92
2017-09-16T10:12:24.016Z,962.94
2017-09-16T10:13:24.111Z,962.89
2017-09-16T10:14:24.004Z,962.9
2017-09-16T10:15:23.999Z,962.9
2017-09-16T10:16:23.993Z,962.93
2017-09-16T10:17:23.988Z,962.92
2017-09-16T10:18:23.982Z,962.9
2017-09-16T10:19:23.978Z,962.92
2017-09-16T10:20:23.972Z,962.89
2017-09-16T10:21:23.965Z,962.89
2017-09-16T10:22:24.060Z,962.91
2017-09-16T10:23:23.955Z,962.91
2017-09-16T10:24:23.948Z,962.92
2017-09-16T10:25:23.945Z,962.91
2017-09-16T10:26:23.938Z,962.91
2017-09-16T10:27:23.933Z,962.94
2017-09-16T10:28:23.928Z,962.91
2017-09-16T10:29:23.922Z,962.93
2017-09-16T10:30:23.918Z,962.96
2017-09-16T10:31:23.912Z,962.95
2017-09-16T10:32:23.907Z,962.99
2017-09-16T10:33:23.901Z,962.96
2017-09-16T10:34:23.896Z,962.98
2017-09-16T10:35:23.889Z,962.97
2017-09-16T10:36:23.885Z,962.95
2017-09-16T10:37:23.880Z,962.97
2017-09-16T10:38:23.874Z,962.95
2017-09-16T10:39:23.867Z,962.97
2017-09-16T10:40:23.864Z,962.95
2017-09-16T10:41:23.857Z,962.95
2017-09-16T10:42:23.853Z,962.96
2017-09-16T10:43:23.847Z,962.94
2017-09-16T10:44:23.842Z,962.92
2017-09-16T10:45:23.837Z,962.91
2017-09-16T10:46:23.829Z,962.9
2017-09-16T10:47:23.825Z,962.91
2017-09-16T10:48:23.820Z,962.91
2017-09-16T10:49:23.815Z,962.93
2017-09-16T10:50:23.809Z,962.93
2017-09-16T10:51:23.804Z,962.9
2017-09-16T10:52:23.799Z,962.87
2017-09-16T10:53:23.793Z,962.88
2017-09-16T10:54:23.788Z,962.86
2017-09-16T10:55:23.783Z,962.87
2017-09-16T10:56:23.778Z,962.86
2017-09-16T10:57:23.772Z,962.85
2017-09-16T10:58:23.867Z,962.87
2017-09-16T10:59:23.760Z,962.86
2017-09-16T11:00:23.862Z,962.87
2017-09-16T11:01:23.750Z,962.86
2017-09-16T11:02:23.846Z,962.83
2017-09-16T11:03:23.839Z,962.83
2017-09-16T11:04:23.736Z,962.79
2017-09-16T11:05:23.729Z,962.8
2017-09-16T11:06:23.725Z,962.82
2017-09-16T11:07:23.719Z,962.79
2017-09-16T11:08:23.714Z,962.81
2017-09-16T11:09:23.709Z,962.75
2017-09-16T11:10:23.706Z,962.77
2017-09-16T11:11:23.699Z,962.79
2017-09-16T11:12:23.702Z,962.79
2017-09-16T11:13:23.788Z,962.77
2017-09-16T11:14:23.684Z,962.78
2017-09-16T11:15:23.681Z,962.78
2017-09-16T11:16:23.671Z,962.8
2017-09-16T11:17:23.668Z,962.76
2017-09-16T11:18:23.662Z,962.77
2017-09-16T11:19:23.656Z,962.71
2017-09-16T11:20:23.751Z,962.77
2017-09-16T11:21:23.647Z,962.76
2017-09-16T11:22:23.641Z,962.78
2017-09-16T11:23:23.636Z,962.78
2017-09-16T11:24:23.630Z,962.72
2017-09-16T11:25:23.626Z,962.73
2017-09-16T11:26:23.619Z,962.73
2017-09-16T11:27:23.716Z,962.72
2017-09-16T11:28:23.609Z,962.68
2017-09-16T11:29:23.706Z,962.66
2017-09-16T11:30:23.600Z,962.73
2017-09-16T11:31:23.595Z,962.67
2017-09-16T11:32:23.590Z,962.65
2017-09-16T11:33:23.585Z,962.66
2017-09-16T11:34:23.679Z,962.67
2017-09-16T11:35:23.574Z,962.63
2017-09-16T11:36:23.570Z,962.69
2017-09-16T11:37:23.563Z,962.62
2017-09-16T11:38:23.559Z,962.65
2017-09-16T11:39:23.654Z,962.66
2017-09-16T11:40:23.549Z,962.63
2017-09-16T11:41:23.543Z,962.62
2017-09-16T11:42:23.539Z,962.69
2017-09-16T11:43:23.533Z,962.64
2017-09-16T11:44:23.628Z,962.63
2017-09-16T11:45:23.523Z,962.56
2017-09-16T11:46:23.518Z,962.58
2017-09-16T11:47:23.514Z,962.55
2017-09-16T11:48:23.508Z,962.52
2017-09-16T11:49:23.504Z,962.56
2017-09-16T11:50:23.499Z,962.54
2017-09-16T11:51:23.493Z,962.51
2017-09-16T11:52:23.588Z,962.52
2017-09-16T11:53:23.483Z,962.5
2017-09-16T11:54:23.478Z,962.49
2017-09-16T11:55:23.474Z,962.48
2017-09-16T11:56:23.467Z,962.5
2017-09-16T11:57:23.463Z,962.44
2017-09-16T11:58:23.459Z,962.49
2017-09-16T11:59:23.453Z,962.41
2017-09-16T12:00:23.448Z,962.48
2017-09-16T12:01:23.444Z,962.47
2017-09-16T12:02:23.438Z,962.45
2017-09-16T12:03:23.431Z,962.46
2017-09-16T12:04:23.428Z,962.51
2017-09-16T12:05:23.423Z,962.53
2017-09-16T12:06:23.419Z,962.51
2017-09-16T12:07:23.414Z,962.46
2017-09-16T12:08:23.408Z,962.47
2017-09-16T12:09:23.403Z,962.47
2017-09-16T12:10:23.397Z,962.47
2017-09-16T12:11:23.393Z,962.47
2017-09-16T12:12:23.387Z,962.41
2017-09-16T12:13:23.384Z,962.42
2017-09-16T12:14:23.477Z,962.41
2017-09-16T12:15:23.373Z,962.39
2017-09-16T12:16:23.369Z,962.39
2017-09-16T12:17:23.365Z,962.38
2017-09-16T12:18:23.357Z,962.33
2017-09-16T12:19:23.353Z,962.37
2017-09-16T12:20:23.350Z,962.36
2017-09-16T12:21:23.343Z,962.37
2017-09-16T12:22:23.338Z,962.34
2017-09-16T12:23:23.333Z,962.35
2017-09-16T12:24:23.330Z,962.34
2017-09-16T12:25:23.322Z,962.28
2017-09-16T12:26:23.317Z,962.25
2017-09-16T12:27:23.313Z,962.28
2017-09-16T12:28:23.308Z,962.24
2017-09-16T12:29:23.304Z,962.22
2017-09-16T12:30:23.299Z,962.24
2017-09-16T12:31:23.294Z,962.2